sensor_id;sensor_type;location;lat;lon;timestamp;P1;durP1;ratioP1;P2;durP2;ratioP2
57718;SDS011;43561;50.090;18.522;2023-03-03T00:03:55;121.55;;;67.15;;
57718;SDS011;43561;50.090;18.522;2023-03-03T00:13:57;153.80;;;80.60;;
57718;SDS011;43561;50.090;18.522;2023-03-03T00:34:35;99.25;;;64.88;;
57718;SDS011;43561;50.090;18.522;2023-03-03T00:54:44;131.10;;;66.38;;
57718;SDS011;43561;50.090;18.522;2023-03-03T01:04:47;102.47;;;53.97;;
57718;SDS011;43561;50.090;18.522;2023-03-03T01:14:52;112.53;;;69.60;;
57718;SDS011;43561;50.090;18.522;2023-03-03T01:24:53;120.78;;;73.95;;
57718;SDS011;43561;50.090;18.522;2023-03-03T01:34:55;105.25;;;62.15;;
57718;SDS011;43561;50.090;18.522;2023-03-03T01:55:24;118.55;;;64.30;;
57718;SDS011;43561;50.090;18.522;2023-03-03T02:05:31;96.78;;;64.03;;
57718;SDS011;43561;50.090;18.522;2023-03-03T02:15:35;112.85;;;67.60;;
57718;SDS011;43561;50.090;18.522;2023-03-03T02:36:02;112.95;;;61.83;;
57718;SDS011;43561;50.090;18.522;2023-03-03T02:46:04;83.15;;;58.15;;
57718;SDS011;43561;50.090;18.522;2023-03-03T02:56:06;109.55;;;60.33;;
57718;SDS011;43561;50.090;18.522;2023-03-03T03:06:08;90.30;;;57.13;;
57718;SDS011;43561;50.090;18.522;2023-03-03T03:16:11;101.20;;;62.28;;
57718;SDS011;43561;50.090;18.522;2023-03-03T03:26:13;79.95;;;45.22;;
57718;SDS011;43561;50.090;18.522;2023-03-03T03:36:15;99.55;;;58.35;;
57718;SDS011;43561;50.090;18.522;2023-03-03T03:46:17;110.38;;;61.58;;
57718;SDS011;43561;50.090;18.522;2023-03-03T03:56:19;101.07;;;57.53;;
57718;SDS011;43561;50.090;18.522;2023-03-03T04:06:25;65.22;;;44.80;;
57718;SDS011;43561;50.090;18.522;2023-03-03T04:16:28;95.05;;;51.90;;
57718;SDS011;43561;50.090;18.522;2023-03-03T04:26:30;109.22;;;61.30;;
57718;SDS011;43561;50.090;18.522;2023-03-03T04:36:35;124.15;;;59.10;;
57718;SDS011;43561;50.090;18.522;2023-03-03T04:46:37;141.90;;;54.88;;
57718;SDS011;43561;50.090;18.522;2023-03-03T04:56:39;264.85;;;98.90;;
57718;SDS011;43561;50.090;18.522;2023-03-03T05:06:41;166.52;;;75.18;;
57718;SDS011;43561;50.090;18.522;2023-03-03T05:16:43;104.97;;;57.97;;
57718;SDS011;43561;50.090;18.522;2023-03-03T05:26:45;157.48;;;69.20;;
57718;SDS011;43561;50.090;18.522;2023-03-03T05:36:47;82.15;;;56.47;;
57718;SDS011;43561;50.090;18.522;2023-03-03T05:46:49;86.78;;;50.10;;
57718;SDS011;43561;50.090;18.522;2023-03-03T05:56:51;139.63;;;65.40;;
57718;SDS011;43561;50.090;18.522;2023-03-03T06:06:53;121.75;;;50.75;;
57718;SDS011;43561;50.090;18.522;2023-03-03T06:16:55;77.53;;;45.92;;
57718;SDS011;43561;50.090;18.522;2023-03-03T06:26:57;86.95;;;51.92;;
57718;SDS011;43561;50.090;18.522;2023-03-03T06:36:59;119.85;;;55.97;;
57718;SDS011;43561;50.090;18.522;2023-03-03T06:47:01;81.22;;;38.53;;
57718;SDS011;43561;50.090;18.522;2023-03-03T06:57:22;108.22;;;45.05;;
57718;SDS011;43561;50.090;18.522;2023-03-03T07:07:28;67.05;;;45.38;;
57718;SDS011;43561;50.090;18.522;2023-03-03T07:17:30;173.77;;;52.13;;
57718;SDS011;43561;50.090;18.522;2023-03-03T07:27:34;57.10;;;40.08;;
57718;SDS011;43561;50.090;18.522;2023-03-03T07:37:37;105.75;;;43.10;;
57718;SDS011;43561;50.090;18.522;2023-03-03T08:08:38;114.43;;;49.45;;
57718;SDS011;43561;50.090;18.522;2023-03-03T08:18:41;59.97;;;30.48;;
57718;SDS011;43561;50.090;18.522;2023-03-03T08:28:46;79.68;;;31.38;;
57718;SDS011;43561;50.090;18.522;2023-03-03T08:38:49;120.30;;;36.83;;
57718;SDS011;43561;50.090;18.522;2023-03-03T08:59:58;109.38;;;40.00;;
57718;SDS011;43561;50.090;18.522;2023-03-03T09:10:00;83.93;;;35.03;;
57718;SDS011;43561;50.090;18.522;2023-03-03T09:30:38;92.00;;;39.35;;
57718;SDS011;43561;50.090;18.522;2023-03-03T10:25:01;113.50;;;37.15;;
57718;SDS011;43561;50.090;18.522;2023-03-03T12:40:37;72.93;;;26.45;;
57718;SDS011;43561;50.090;18.522;2023-03-03T13:00:58;67.78;;;32.33;;
57718;SDS011;43561;50.090;18.522;2023-03-03T13:21:25;66.75;;;33.33;;
57718;SDS011;43561;50.090;18.522;2023-03-03T13:31:38;59.67;;;25.52;;
57718;SDS011;43561;50.090;18.522;2023-03-03T13:52:04;48.88;;;21.75;;
57718;SDS011;43561;50.090;18.522;2023-03-03T14:23:02;43.20;;;26.40;;
57718;SDS011;43561;50.090;18.522;2023-03-03T14:33:15;71.40;;;28.83;;
57718;SDS011;43561;50.090;18.522;2023-03-03T14:43:23;41.30;;;19.58;;
57718;SDS011;43561;50.090;18.522;2023-03-03T14:53:32;55.63;;;22.08;;
57718;SDS011;43561;50.090;18.522;2023-03-03T15:03:36;46.13;;;20.55;;
57718;SDS011;43561;50.090;18.522;2023-03-03T15:13:44;32.00;;;17.08;;
57718;SDS011;43561;50.090;18.522;2023-03-03T15:24:22;28.50;;;17.08;;
57718;SDS011;43561;50.090;18.522;2023-03-03T15:34:27;29.33;;;15.63;;
57718;SDS011;43561;50.090;18.522;2023-03-03T15:44:46;45.85;;;15.75;;
57718;SDS011;43561;50.090;18.522;2023-03-03T15:55:16;32.83;;;16.55;;
57718;SDS011;43561;50.090;18.522;2023-03-03T16:36:53;52.60;;;25.60;;
57718;SDS011;43561;50.090;18.522;2023-03-03T16:47:32;42.50;;;21.13;;
57718;SDS011;43561;50.090;18.522;2023-03-03T16:57:48;59.33;;;28.17;;
57718;SDS011;43561;50.090;18.522;2023-03-03T17:28:59;41.80;;;22.98;;
57718;SDS011;43561;50.090;18.522;2023-03-03T17:39:24;59.38;;;32.13;;
57718;SDS011;43561;50.090;18.522;2023-03-03T18:00:13;47.65;;;20.27;;
57718;SDS011;43561;50.090;18.522;2023-03-03T18:31:00;47.13;;;22.10;;
57718;SDS011;43561;50.090;18.522;2023-03-03T18:41:03;56.70;;;26.45;;
57718;SDS011;43561;50.090;18.522;2023-03-03T18:51:09;36.63;;;17.95;;
57718;SDS011;43561;50.090;18.522;2023-03-03T19:11:36;49.92;;;22.58;;
57718;SDS011;43561;50.090;18.522;2023-03-03T19:21:49;30.55;;;19.60;;
57718;SDS011;43561;50.090;18.522;2023-03-03T20:13:55;39.78;;;22.15;;
57718;SDS011;43561;50.090;18.522;2023-03-03T20:34:30;46.30;;;24.50;;
57718;SDS011;43561;50.090;18.522;2023-03-03T21:05:09;81.75;;;35.58;;
57718;SDS011;43561;50.090;18.522;2023-03-03T21:15:29;54.05;;;29.92;;
57718;SDS011;43561;50.090;18.522;2023-03-03T21:35:55;52.28;;;24.77;;
57718;SDS011;43561;50.090;18.522;2023-03-03T21:45:57;49.35;;;26.30;;
57718;SDS011;43561;50.090;18.522;2023-03-03T21:55:59;47.25;;;28.70;;
57718;SDS011;43561;50.090;18.522;2023-03-03T22:06:02;63.65;;;29.98;;
57718;SDS011;43561;50.090;18.522;2023-03-03T22:16:04;72.63;;;35.33;;
57718;SDS011;43561;50.090;18.522;2023-03-03T22:26:06;83.75;;;39.63;;
57718;SDS011;43561;50.090;18.522;2023-03-03T22:36:08;65.00;;;32.00;;
57718;SDS011;43561;50.090;18.522;2023-03-03T22:46:11;77.32;;;32.38;;
57718;SDS011;43561;50.090;18.522;2023-03-03T22:56:13;42.90;;;31.75;;
57718;SDS011;43561;50.090;18.522;2023-03-03T23:06:15;66.07;;;32.17;;
57718;SDS011;43561;50.090;18.522;2023-03-03T23:16:19;43.47;;;26.38;;
57718;SDS011;43561;50.090;18.522;2023-03-03T23:26:21;53.03;;;29.15;;
57718;SDS011;43561;50.090;18.522;2023-03-03T23:36:23;56.55;;;26.70;;
57718;SDS011;43561;50.090;18.522;2023-03-03T23:46:25;51.30;;;22.27;;
57718;SDS011;43561;50.090;18.522;2023-03-03T23:56:27;47.75;;;22.20;;
